Bear Valley Ski Patrol Weather




            Date and Time  Surv  Temp  Temp  Surv  Precip   Total Inter Total  Batt Koala Koala Koala Koala Koala Koala Bear T Bear T  Bear  Bear  Bear
                           Temp 24 hr 24 hr    RH    Inch   24 hr  Snow  Snow  volt  Temp    RH    WS    WD    WS    WS   Temp     RH    WS    WD    WS
                          Deg F   Min   Max     %    Hour  Precip Stake Stake  Surv Deg F     %   mph  quad   Max 24Max  Deg F      %   mph  quad   Max
-------------------------------------------------------------------------------------------------------------------------------------------------------
    "2021-07-30 08:00:00"    64                43    0.00             0   226  13.3    61    49     8   SSE    12           63     47     5   SSE     9
    "2021-07-30 09:00:00"    65                43    0.00             0   226  13.3    63    47     7   SSE    13           63     48     4   SSE     8
    "2021-07-30 10:00:00"    67                41    0.00             0   226  13.3    64    51     6   SSE    11           64     46     4   SSE     7
    "2021-07-30 11:00:00"    69                40    0.00             0   226  13.3    66    48     3    SE     9           65     50     3    SE     7
    "2021-07-30 12:00:00"    69                42    0.00             0   226  13.2    67    44     0   WNW     5           65     48     1    NE     6
    "2021-07-30 13:00:00"    69                39    0.00             0   226  13.2    66    44     4    NW    13           67     46     2     N     9
    "2021-07-30 14:00:00"    71                35    0.00             0   226  13.2    68    37     4    NW    10           68     43     2   WNW     8
    "2021-07-30 15:00:00"    70                39    0.00             0   226  13.2    68    42     5    NW    11           68     46     2   WNW     9
    "2021-07-30 16:00:00"    68                47    0.00             0   226  13.1    66    50     5   WNW    13           66     56     2     W     9
    "2021-07-30 17:00:00"    61                72    0.04             0   226  13.1    61    55     6   WNW    15           63     55     2   WNW     8
    "2021-07-30 18:00:00"    61                60    0.00             0   226  13.2    61    56     4    SE    10           61     58     4     S     7
    "2021-07-30 19:00:00"    62                61    0.00             0   226  13.2    61    51     4    SW     9           61     55     2   SSW     6
    "2021-07-30 20:00:00"    61                59    0.00             0   226  13.2    61    54     3    NW     6           62     57     3    NW     7
    "2021-07-30 21:00:00"    60                57    0.00             0   226  13.2    61    51     2     N     8           62     53     3     N     7
    "2021-07-30 22:00:00"    59                57    0.00             0   226  13.2    60    52     4    NE     9           61     58     2   NNE     5
    "2021-07-30 23:00:00"    59                56    0.00             0   226  13.2    60    51     5   ENE    11           60     51     3    NE     7
    "2021-07-31 00:00:00"    59                55    0.00             0   226  13.3    59    52     5    SE     8           61     51     3    SE     7
    "2021-07-31 01:00:00"    59                53    0.00             0   226  13.3    59    49     5    SE     7           61     51     3   SSE     5
    "2021-07-31 02:00:00"    59                53    0.00             0   226  13.3    61    46     5   SSW     8           61     51     4   SSW     6
    "2021-07-31 03:00:00"    59                55    0.00             0   226  13.3    61    47     5    SW     8           61     51     4   SSW     6
    "2021-07-31 04:00:00"    59                55    0.00             0   226  13.3    61    47     5    SW     8           61     52     4   SSW     6
    "2021-07-31 05:00:00"    59                55    0.00             0   226  13.3    61    48     6    SW     7           61     52     4   SSW     5
    "2021-07-31 06:00:00"    59                53    0.00             0   226  13.3    60    50     7    SW    10           60     55     5   SSW     8
    "2021-07-31 07:00:00"    59    59    71    56    0.00    0.04     0   226  13.3    59    50     5   SSW     9    15     59     57     4   SSW     7
    "2021-07-31 08:00:00"    62                52    0.00             0   226  13.3    60    53     5   SSW     9           60     57     3   SSW     6
    "2021-07-31 09:00:00"    64                51    0.00             0   226  13.3    61    54     4   SSE     8           61     59     2     S     5
    "2021-07-31 10:00:00"    66                49    0.00             0   226  13.3    63    51     5     S    11           63     54     2   SSW     7
    "2021-07-31 11:00:00"    65                51    0.00             0   226  13.3    64    50     3   WNW    11           64     55     3   ENE     8
    "2021-07-31 12:00:00"    66                48    0.00             0   226  13.3    64    49     3    NW     8           63     52     0   NNW     7
    "2021-07-31 13:00:00"    69                47    0.00             0   226  13.2    65    50     4   WNW    12           65     54     3   WNW    11
    "2021-07-31 14:00:00"    67                50    0.00             0   225  13.2    64    52     6   WNW    15           65     55     2   WNW     9
    "2021-07-31 15:00:00"    64                56    0.00             0   226  13.2    61    56     6     W    20           62     64     2     W     8
    "2021-07-31 16:00:00"    66                41    0.00             0   226  13.2    64    49     4     W    16           62     50     1     N     7
    "2021-07-31 17:00:00"    67                33    0.00             0   226  13.2    66    33     5    NW    12           64     40     2     N     8
    "2021-07-31 18:00:00"    65                39    0.00             0   226  13.2    66    38     5    NW    12           64     43     2     W     8
    "2021-07-31 19:00:00"    65                40    0.00             0   225  13.2    64    38     4   WNW     9           63     46     1    NW     7
    "2021-07-31 20:00:00"    61                45    0.00             0   226  13.2    62    37     5   WNW    12           61     43     2   WNW     5
    "2021-07-31 21:00:00"    60                43    0.00             0   226  13.2    61    36     5    NW     9           61     40     3     W     7
    "2021-07-31 22:00:00"    58                43    0.00             0   226  13.2    61    34     2   WNW     5           61     42     2   WSW     4
    "2021-07-31 23:00:00"    58                43    0.00             0   226  13.2    61    35     2   NNW     5           60     41     0    NW     3
    "2021-08-01 00:00:00"    58                45    0.00             0   226  13.2    60    39     3     N     6           60     44     2     N     5
    "2021-08-01 01:00:00"    58                54    0.00             0   226  13.3    60    50     5   ENE    11           60     51     2     E     6
    "2021-08-01 02:00:00"    57                54    0.00             0   226  13.3    59    47     4     E    12           60     51     2   ESE     6
    "2021-08-01 03:00:00"    56                54    0.00             0   226  13.3    59    47     4   ESE     6           60     49     4     E     7
    "2021-08-01 04:00:00"    56                53    0.00             0   226  13.3    58    46     4    SE     5           59     48     3    SE     5
    "2021-08-01 05:00:00"    57                53    0.00             0   226  13.3    58    48     5   SSE     7           59     51     4   SSE     6
    "2021-08-01 06:00:00"    57                54    0.00             0   226  13.3    57    49     5   SSE     7           58     53     5     S     8
    "2021-08-01 07:00:00"    59    56    69    52    0.00    0.00     0   226  13.4    57    53     5   SSE     8    20     58     55     6     S     8
    "2021-08-01 08:00:00"    60                55    0.00             0   226  13.4    59    56     6    SE    10           59     59     3   SSE     7
    "2021-08-01 09:00:00"    63                52    0.00             0   226  13.3    61    49     5   SSE    11           61     57     4   SSE     9
    "2021-08-01 10:00:00"    65                43    0.00             0   225  13.3    63    45     8     S    14           62     49     4   SSE    11
    "2021-08-01 11:00:00"    67                35    0.00             0   225  13.3    66    38     5     S    15           64     40     3    SE    11
    "2021-08-01 12:00:00"    69                30    0.00             0   225  13.3    67    37     3   SSE    11           66     40     3     E    10
    "2021-08-01 13:00:00"    72                32    0.00             0   225  13.2    70    32     3     S    16           67     38     4   SSE    13
    "2021-08-01 14:00:00"    74                30    0.00             0   225  13.2    70    30     5   SSW    17           68     36     3     S    12
    "2021-08-01 15:00:00"    71                35    0.00             0   225  13.1    71    32     5    SW    20           68     38     3    SE    10
    "2021-08-01 16:00:00"    71                33    0.00             0   226  13.1    71    29     5   WNW    14           69     36     4     W    12
    "2021-08-01 17:00:00"    70                30    0.00             0   226  13.1    70    30     5   WNW    15           69     36     3   WNW    11